Rms Voerde — V2AD8 — position and weather

sailwx.info

Track history (hours):
 
Tides and Currents Weather Stations Pressure Air Temp Water Temp Dewpoint Dewpoint Depression Visibility Wind Speed Wind Dir Waves Ship Positions

Rms Voerde

Last reported at 2016-May-03 15:20 UTC. Time now 2016-May-03 18:14 UTC.
Position N 43°36' W 005°42'.

Length 90 m.

Type: Cargo ship. MMSI: 304010905.

Date/timePositionNaut miles runAvg speedWind from/ knotsBaromVisibWave heightAir tempDewpointWater temp
2016-May-03 15:20N 43°36' W 005°42'0 0.0
2016-May-03 13:26N 43°36' W 005°42'0 0.0
2016-May-03 11:32N 43°36' W 005°42'0 0.0
2016-May-03 10:32N 43°36' W 005°42'2 2.3
2016-May-03 09:29N 43°38' W 005°44'9 9.5
2016-May-03 08:33N 43°41' W 005°56'64 4.2
2016-May-02 17:31N 43°44' W 007°24'74 1.9
2016-May-01 02:15N 43°42' W 005°41'710.1
2016-May-01 01:31N 43°40' W 005°31'1210.7
2016-May-01 00:26N 43°40' W 005°15'  
2016-Apr-27 23:15N 49°43' W 003°30'6 9.2
2016-Apr-27 22:33N 49°46' W 003°21'10 8.8
2016-Apr-27 21:24N 49°52' W 003°08'8 9.1
2016-Apr-27 20:34N 49°56' W 002°58'10410.4
2016-Apr-27 10:34N 50°28' W 000°23'9 8.9
2016-Apr-27 09:32N 50°31' W 000°09'1010.0
2016-Apr-27 08:34N 50°34' E 000°05'1110.9
2016-Apr-27 07:33N 50°37' E 000°22'3210.7
2016-Apr-27 04:33N 50°53' E 001°06'9 9.0
2016-Apr-27 03:33N 50°58' E 001°17'8 7.7
2016-Apr-27 02:34N 51°03' E 001°26'8 8.3
2016-Apr-27 01:34N 51°09' E 001°36'9 8.9
2016-Apr-27 00:33N 51°15' E 001°47'1110.6
2016-Apr-26 23:34N 51°24' E 001°56'1111.0
2016-Apr-26 22:33N 51°32' E 002°07'57 8.9
2016-Apr-26 16:09N 52°16' E 003°05'  
Track history (hours):
 
Tides and Currents Weather Stations Pressure Air Temp Water Temp Dewpoint Dewpoint Depression Visibility Wind Speed Wind Dir Waves Ship Positions

Rms Voerde

Last reported at 2016-May-03 15:20 UTC. Time now 2016-May-03 18:14 UTC.
Position N 43°36' W 005°42'.

Length 90 m.

Type: Cargo ship. MMSI: 304010905.

Date/timePositionNaut miles runAvg speedWind from/ knotsBaromVisibWave heightAir tempDewpointWater temp
2016-May-03 15:20N 43°36' W 005°42'0 0.0
2016-May-03 13:26N 43°36' W 005°42'0 0.0
2016-May-03 11:32N 43°36' W 005°42'0 0.0
2016-May-03 10:32N 43°36' W 005°42'2 2.3
2016-May-03 09:29N 43°38' W 005°44'9 9.5
2016-May-03 08:33N 43°41' W 005°56'64 4.2
2016-May-02 17:31N 43°44' W 007°24'74 1.9
2016-May-01 02:15N 43°42' W 005°41'710.1
2016-May-01 01:31N 43°40' W 005°31'1210.7
2016-May-01 00:26N 43°40' W 005°15'  
2016-Apr-27 23:15N 49°43' W 003°30'6 9.2
2016-Apr-27 22:33N 49°46' W 003°21'10 8.8
2016-Apr-27 21:24N 49°52' W 003°08'8 9.1
2016-Apr-27 20:34N 49°56' W 002°58'10410.4
2016-Apr-27 10:34N 50°28' W 000°23'9 8.9
2016-Apr-27 09:32N 50°31' W 000°09'1010.0
2016-Apr-27 08:34N 50°34' E 000°05'1110.9
2016-Apr-27 07:33N 50°37' E 000°22'3210.7
2016-Apr-27 04:33N 50°53' E 001°06'9 9.0
2016-Apr-27 03:33N 50°58' E 001°17'8 7.7
2016-Apr-27 02:34N 51°03' E 001°26'8 8.3
2016-Apr-27 01:34N 51°09' E 001°36'9 8.9
2016-Apr-27 00:33N 51°15' E 001°47'1110.6
2016-Apr-26 23:34N 51°24' E 001°56'1111.0
2016-Apr-26 22:33N 51°32' E 002°07'57 8.9
2016-Apr-26 16:09N 52°16' E 003°05'  

Dump ship's entire track history